Terminal Aerodrome Forecast
Issued by NWS Cleveland, OH

Home | Current Version | Previous Version | Text Only | Print | Product List | Glossary On
Versions: 1 2 3 4 5 6 7 8 9 10 11 12 13 14 15 16 17 18 19 20 21 22 23 24 25
000
FTUS41 KCLE 021100
TAFCAK
TAF
KCAK 021120Z 0212/0312 22009KT 6SM BR BKN003 BKN035
     FM021300 24011KT P6SM -SHRA SCT012 OVC025
      TEMPO 0213/0216 5SM -TSRA BR BKN012CB
     FM021600 24012KT P6SM BKN012
     FM022000 25010KT P6SM VCSH BKN035
     FM022200 25008KT P6SM SCT035 BKN120
     FM030200 22005KT P6SM SCT120 BKN250
     FM030800 20004KT 5SM BR BKN250
      TEMPO 0309/0312 3SM BR BKN012=

USA.gov is the U.S. government's official web portal to all federal, state and local government web resources and services.